Copper Center, AK

9:58 PM AKDT on August 29, 2014 (GMT -0800)
Klutina River | Change Station
CLOSE
Current Station
Personal Weather Station
Location: Copper Center, AK
Elevation: 1100 ft
Nearby Weather Stations

Elev 1100 ft 61.95 °N, 145.32 °W | Updated 4 seconds ago

Rain
Rain
47.0 °F
Feels Like 47 °F
N
0.0
Wind Variable Wind from North
Gusts 0.0 mph

Today
High -- | Low -- °F
--% Chance of Precip.
Yesterday
High -- | Low -- °F
Precip. -- in
6:23 AM 8:59 PM
Waxing Crescent, 19% visible
Pressure 29.61 in
Visibility 10.0 miles
Clouds Mostly Cloudy 3200 ft
Overcast 9500 ft
Windchill 47 °F
Dew Point 46 °F
Humidity 97%
Rainfall 0.40 in
Snow Depth Not available.
UV 0 out of 12
Pollen Not available.
Air Quality Not available.
Flu Activity Not available.
METAR PAGK 300553Z AUTO 14003KT 10SM BKN032 OVC095 07/07 A2957 RMK AO2 SLP025 60020 T00720072 10106 20072 53003 TSNO

More Conditions Fewer Conditions

Pressure 29.61 in
Visibility 10.0 miles
Clouds Mostly Cloudy 3200 ft
Overcast 9500 ft
Windchill 47 °F
Dew Point 46 °F
Humidity 97%
Rainfall 0.40 in
Snow Depth Not available.
UV 0 out of 12
Pollen Not available.
Air Quality Not available.
Flu Activity Not available.
METAR PAGK 300553Z AUTO 14003KT 10SM BKN032 OVC095 07/07 A2957 RMK AO2 SLP025 60020 T00720072 10106 20072 53003 TSNO

More Conditions Fewer Conditions

10-Day Weather Forecast

Almanac

Astronomy

Aug. 29, 2014 Rise Set
Actual Time 6:23 AM AKDT 8:59 PM AKDT
Civil Twilight 5:34 AM AKDT 9:48 PM AKDT
Nautical Twilight 4:26 AM AKDT 10:54 PM AKDT
Astronomical Twilight 2:36 AM AKDT 12:37 AM AKDT
Moon 11:44 AM AKDT (8/29) 9:35 PM AKDT (8/29)
Length of Visible Light 16h 13m
Length of Day
14h 35m
Tomorrow will be 5m 51s shorter.
Waxing Crescent, 19% of the Moon is Illuminated
Aug 30
Waxing Crescent
Sep 2
First Quarter
Sep 8
Full
Sep 15
Last Quarter
Sep 24
New

Yesterday's Extremes

State Highs State Lows

Community

WunderPhotos

Upload Photos

1,748,467 photos uploaded!

Nearby

Snow Depth

Station Depth Elevation
Upper Tsaina River 0 in 1750 ft
Granite Creek 0 in 1240 ft
Indian Pass 2 in 2300 ft
Turnagain Pass 1 in 1880 ft
Susitna Valley High 2 in 375 ft

Earthquake Activity

City Distance Mag. Time & Date
No recent earthquake activity has been reported nearby.
Minimum magnitude displayed is 2.5.

Coastal Water Temperatures

Place Temperature
No Stations Reporting

Nearby Weather Stations